createdAt,value
2022-12-23T20:49:56.839Z,18.15
2022-12-23T20:52:29.896Z,16.27
2022-12-23T20:57:33.571Z,17.42
2022-12-23T21:00:04.141Z,17.27
2022-12-23T21:02:37.040Z,18.60
2022-12-23T21:05:06.755Z,17.73
2022-12-23T21:07:43.463Z,19.23
2022-12-23T21:10:17.055Z,18.30
2022-12-23T21:12:49.739Z,19.50
2022-12-23T21:15:22.479Z,19.12
2022-12-23T21:17:55.324Z,22.85
2022-12-23T21:20:25.971Z,18.42
2022-12-23T21:22:58.247Z,16.60
2022-12-23T21:25:31.148Z,23.40
2022-12-23T21:28:04.156Z,19.10
2022-12-23T21:33:04.783Z,17.75
2022-12-23T21:35:36.768Z,19.37
2022-12-23T21:40:49.881Z,19.42
2022-12-23T21:43:23.766Z,18.25
2022-12-23T21:46:03.188Z,17.48
2022-12-23T21:48:39.795Z,18.02
2022-12-23T21:51:13.215Z,18.15
2022-12-23T21:53:47.928Z,15.75
2022-12-23T21:56:25.689Z,14.65
2022-12-23T21:59:00.410Z,15.10
2022-12-23T22:01:30.962Z,17.20
2022-12-23T22:03:58.447Z,15.07
2022-12-23T22:06:32.631Z,21.92
2022-12-23T22:09:10.280Z,15.98
2022-12-23T22:11:43.001Z,15.32
2022-12-23T22:14:17.448Z,12.00
2022-12-23T22:16:57.411Z,16.67
2022-12-23T22:19:25.959Z,14.82
2022-12-23T22:21:57.999Z,13.90
2022-12-23T22:24:32.579Z,15.50
2022-12-23T22:27:08.897Z,20.05
2022-12-23T22:29:45.245Z,14.25
2022-12-23T22:32:23.168Z,13.20
2022-12-23T22:35:01.900Z,16.42
2022-12-23T22:37:36.526Z,14.65
2022-12-23T22:40:09.568Z,12.02
2022-12-23T22:42:42.576Z,13.18
2022-12-23T22:47:52.571Z,16.75
2022-12-23T22:52:55.994Z,12.63
2022-12-23T22:55:26.511Z,16.85
2022-12-23T22:57:53.579Z,10.52
2022-12-23T23:00:28.981Z,17.10
2022-12-23T23:02:59.649Z,11.43
2022-12-23T23:05:39.068Z,12.20
2022-12-23T23:08:12.484Z,12.55
2022-12-23T23:10:53.517Z,12.48
2022-12-23T23:13:25.716Z,11.18
2022-12-23T23:15:57.787Z,13.32
2022-12-23T23:18:26.321Z,12.87
2022-12-23T23:21:00.774Z,12.63
2022-12-23T23:23:35.215Z,11.30
2022-12-23T23:26:15.265Z,11.25
2022-12-23T23:28:59.260Z,11.05
2022-12-23T23:31:41.744Z,11.68
2022-12-23T23:34:25.565Z,10.88
2022-12-23T23:39:48.521Z,10.90
2022-12-23T23:42:24.487Z,10.98
2022-12-23T23:45:00.421Z,9.82
2022-12-23T23:47:32.513Z,11.15
2022-12-23T23:50:07.656Z,10.20
2022-12-23T23:52:41.364Z,11.05
2022-12-23T23:55:15.449Z,12.07
2022-12-23T23:57:51.390Z,10.45
